Time;durP1;ratioP1;P1;durP2;ratioP2;P2;SDS_P1;SDS_P2;PMS_P1;PMS_P2;Temp;Humidity;BMP_temperature;BMP_pressure;BME280_temperature;BME280_humidity;BME280_pressure;Samples;Min_cycle;Max_cycle;Signal;HPM_P1;HPM_P2
2022/03/08 00:02:25;;;;;;;8.63;4.00;;;;;;;-1.13;80.80;102070.69;6025574;28;20265;-67
2022/03/08 00:05:22;;;;;;;10.37;3.90;;;;;;;-1.04;80.51;102073.06;6025780;28;20273;-68
2022/03/08 00:08:17;;;;;;;12.02;4.32;;;;;;;-1.06;80.11;102071.38;6026118;28;20303;-68
2022/03/08 00:11:12;;;;;;;9.57;4.03;;;;;;;-1.01;79.65;102065.19;6025536;28;20030;-67
2022/03/08 00:14:08;;;;;;;9.98;3.67;;;;;;;-0.91;79.53;102070.97;6025979;28;20102;-67
2022/03/08 00:17:03;;;;;;;13.63;4.70;;;;;;;-0.90;79.52;102072.69;6025828;28;20092;-67
2022/03/08 00:19:59;;;;;;;12.35;4.53;;;;;;;-0.90;78.88;102064.91;6025502;28;20077;-67
2022/03/08 00:22:54;;;;;;;9.37;4.27;;;;;;;-0.88;78.67;102063.09;6025241;28;20038;-67
2022/03/08 00:25:49;;;;;;;14.98;5.47;;;;;;;-1.04;78.25;102047.03;6026084;28;20378;-67
2022/03/08 00:28:45;;;;;;;13.77;5.87;;;;;;;-1.04;78.68;102034.03;6025698;28;20019;-68
2022/03/08 00:31:40;;;;;;;13.47;5.20;;;;;;;-1.06;79.14;102053.19;6028995;28;20042;-67
2022/03/08 00:34:35;;;;;;;11.67;5.03;;;;;;;-1.01;79.95;102051.31;6033682;28;20022;-67
2022/03/08 00:37:31;;;;;;;13.93;5.27;;;;;;;-0.96;80.88;102042.47;6033928;28;20454;-68
2022/03/08 00:40:26;;;;;;;15.83;5.70;;;;;;;-1.00;80.39;102045.19;6032615;28;20074;-68
2022/03/08 00:43:21;;;;;;;16.08;4.82;;;;;;;-1.28;80.50;102045.88;6033763;28;20072;-67
2022/03/08 00:46:17;;;;;;;12.70;4.30;;;;;;;-1.18;80.95;102037.84;6032851;28;20039;-67
2022/03/08 00:49:12;;;;;;;10.35;4.30;;;;;;;-1.26;80.27;102038.91;6033089;28;20368;-67
2022/03/08 00:52:08;;;;;;;14.27;4.97;;;;;;;-1.46;80.14;102032.50;6033153;28;20362;-68
2022/03/08 00:55:06;;;;;;;13.70;4.60;;;;;;;-1.41;81.12;102036.69;6032344;28;20736;-68
2022/03/08 00:58:03;;;;;;;11.07;3.97;;;;;;;-1.44;81.31;102028.94;6031872;28;20112;-68
2022/03/08 01:00:58;;;;;;;11.07;4.88;;;;;;;-1.46;81.44;102022.94;6032139;28;20037;-68
2022/03/08 01:03:53;;;;;;;15.83;4.53;;;;;;;-1.43;81.58;102028.06;6032969;28;20018;-68
2022/03/08 01:06:48;;;;;;;13.07;4.03;;;;;;;-1.39;81.93;102021.91;6033819;28;20438;-68
2022/03/08 01:09:44;;;;;;;12.00;4.70;;;;;;;-1.42;81.61;102024.59;6032971;28;20464;-67
2022/03/08 01:12:39;;;;;;;13.47;5.03;;;;;;;-1.45;81.76;102029.00;6032476;28;20076;-68
2022/03/08 01:15:34;;;;;;;12.00;5.83;;;;;;;-1.43;81.73;102017.66;6032936;28;20033;-67
2022/03/08 01:18:30;;;;;;;12.30;4.40;;;;;;;-1.42;82.13;102015.94;6032603;28;20277;-68
2022/03/08 01:21:25;;;;;;;10.47;5.07;;;;;;;-1.38;81.92;102015.81;6033055;28;20058;-67
2022/03/08 01:24:20;;;;;;;11.03;4.37;;;;;;;-1.38;81.75;102018.41;6033005;28;20026;-68
2022/03/08 01:27:16;;;;;;;12.07;4.43;;;;;;;-1.26;81.52;102019.84;6031877;28;20077;-68
2022/03/08 01:30:13;;;;;;;10.60;4.20;;;;;;;-1.27;81.79;102024.19;6026648;28;20110;-68
2022/03/08 01:33:08;;;;;;;12.30;4.90;;;;;;;-1.27;81.57;102019.00;6025064;28;20284;-67
2022/03/08 01:36:04;;;;;;;14.37;5.07;;;;;;;-1.26;81.80;102025.06;6033540;28;20112;-67
2022/03/08 01:38:59;;;;;;;10.70;4.40;;;;;;;-1.39;81.95;102015.84;6030551;28;20062;-68
2022/03/08 01:41:54;;;;;;;8.73;4.03;;;;;;;-1.97;82.09;102019.84;6031832;28;20037;-67
2022/03/08 01:44:50;;;;;;;12.77;4.50;;;;;;;-2.31;82.33;102020.63;6028007;28;20058;-68
2022/03/08 01:47:45;;;;;;;11.82;4.00;;;;;;;-2.53;83.55;102023.63;6029279;28;20277;-67
2022/03/08 01:50:40;;;;;;;10.20;4.07;;;;;;;-2.38;84.32;102029.41;6028856;28;20027;-68
2022/03/08 01:53:37;;;;;;;8.50;3.10;;;;;;;-1.54;84.64;102019.69;6028255;28;20775;-68
2022/03/08 01:56:33;;;;;;;9.10;3.97;;;;;;;-1.64;83.43;102018.19;6029224;28;20038;-68
2022/03/08 01:59:28;;;;;;;11.63;4.20;;;;;;;-1.66;83.69;102014.78;6027887;28;20026;-68
2022/03/08 02:02:24;;;;;;;12.83;4.13;;;;;;;-1.66;83.49;102014.78;6028516;28;20033;-68
2022/03/08 02:05:19;;;;;;;8.15;3.80;;;;;;;-1.82;83.93;102006.47;6028735;28;20026;-68
2022/03/08 02:08:15;;;;;;;9.73;4.20;;;;;;;-2.01;84.47;102007.78;6027022;28;20022;-69
2022/03/08 02:11:10;;;;;;;9.87;3.60;;;;;;;-1.88;84.96;102003.19;6026185;28;20339;-68
2022/03/08 02:14:06;;;;;;;9.00;4.07;;;;;;;-2.11;84.80;102002.84;6027582;28;20273;-67
2022/03/08 02:17:01;;;;;;;8.73;3.87;;;;;;;-2.17;85.07;102010.75;6028947;28;20120;-68
2022/03/08 02:19:57;;;;;;;12.05;4.40;;;;;;;-1.88;85.15;102008.38;6028325;28;20281;-68
2022/03/08 02:22:52;;;;;;;12.52;4.68;;;;;;;-1.95;85.66;102004.19;6027443;28;20465;-68
2022/03/08 02:25:47;;;;;;;12.38;4.00;;;;;;;-2.03;85.07;102000.91;6028138;28;20030;-68
2022/03/08 02:28:43;;;;;;;11.03;4.53;;;;;;;-2.14;84.97;102001.16;6027086;28;20042;-68
2022/03/08 02:31:39;;;;;;;6.90;3.33;;;;;;;-2.14;85.66;102002.91;6024376;28;20461;-68
2022/03/08 02:34:34;;;;;;;11.13;4.55;;;;;;;-2.14;85.73;101997.72;6026597;28;20035;-68
2022/03/08 02:37:39;;;;;;;13.80;4.07;;;;;;;-2.08;85.28;101995.84;6023513;28;20420;-68
2022/03/08 02:40:37;;;;;;;8.60;3.88;;;;;;;-2.29;85.49;101993.72;6027081;28;20702;-69
2022/03/08 02:43:32;;;;;;;12.13;4.63;;;;;;;-2.58;85.26;101994.31;6027474;28;20129;-68
2022/03/08 02:46:27;;;;;;;11.27;4.50;;;;;;;-2.59;85.26;101996.97;6028268;28;20381;-69
2022/03/08 02:49:22;;;;;;;15.10;4.83;;;;;;;-2.39;85.80;101991.38;6027782;28;20022;-67
2022/03/08 02:52:18;;;;;;;10.13;4.53;;;;;;;-2.20;86.08;102005.66;6027188;28;20113;-68
2022/03/08 02:55:13;;;;;;;10.63;4.33;;;;;;;-2.29;86.50;101998.06;6026273;28;20355;-69
2022/03/08 02:58:08;;;;;;;12.20;4.73;;;;;;;-2.02;85.62;102011.31;6026990;28;20069;-69
2022/03/08 03:01:04;;;;;;;9.37;3.60;;;;;;;-2.14;86.08;101995.09;6027032;28;20137;-68
2022/03/08 03:03:59;;;;;;;13.27;3.97;;;;;;;-2.21;85.62;101998.75;6027169;28;20027;-68
2022/03/08 03:06:54;;;;;;;9.32;3.75;;;;;;;-2.37;85.42;101993.03;6027506;28;20356;-68
2022/03/08 03:09:50;;;;;;;10.48;3.75;;;;;;;-2.34;85.56;102010.28;6026933;28;20038;-68
2022/03/08 03:12:46;;;;;;;11.77;4.32;;;;;;;-2.53;85.24;102000.28;6025063;28;20474;-67
2022/03/08 03:15:41;;;;;;;10.93;3.10;;;;;;;-2.50;85.64;102000.22;6027323;28;20022;-68
2022/03/08 03:18:36;;;;;;;10.80;4.10;;;;;;;-2.26;85.38;102008.38;6026173;28;20038;-67
2022/03/08 03:21:32;;;;;;;8.93;3.90;;;;;;;-2.29;84.92;102005.84;6025459;28;20385;-68
2022/03/08 03:24:27;;;;;;;10.20;4.15;;;;;;;-2.21;85.56;102003.94;6023494;28;20770;-68
2022/03/08 03:27:22;;;;;;;9.00;3.73;;;;;;;-2.38;85.50;101991.31;6021055;28;20031;-68
2022/03/08 03:30:18;;;;;;;13.57;4.60;;;;;;;-2.45;85.69;101993.19;6021928;28;20034;-67
2022/03/08 03:33:13;;;;;;;13.43;4.03;;;;;;;-2.43;85.50;101993.16;6024269;28;20058;-68
2022/03/08 03:36:09;;;;;;;12.97;4.57;;;;;;;-2.41;85.67;102002.63;6023869;28;20034;-68
2022/03/08 03:39:05;;;;;;;9.52;3.55;;;;;;;-2.44;85.68;101992.31;6021748;28;20029;-68
2022/03/08 03:42:00;;;;;;;13.63;4.53;;;;;;;-2.37;85.08;101993.03;6019641;28;20019;-67
2022/03/08 03:44:55;;;;;;;10.67;3.83;;;;;;;-2.38;84.99;101993.06;6019249;28;20102;-68
2022/03/08 03:47:50;;;;;;;17.03;4.30;;;;;;;-2.61;85.41;101999.56;6024915;28;20040;-68
2022/03/08 03:50:46;;;;;;;15.23;4.50;;;;;;;-2.48;85.69;102001.06;6022027;28;20026;-68
2022/03/08 03:53:41;;;;;;;10.60;4.67;;;;;;;-2.44;85.55;102002.69;6020147;28;20026;-68
2022/03/08 03:56:36;;;;;;;8.93;3.57;;;;;;;-2.69;85.15;102001.47;6021430;28;20362;-68
2022/03/08 03:59:32;;;;;;;11.60;4.07;;;;;;;-2.61;86.02;102004.75;6019590;28;20586;-68
2022/03/08 04:02:27;;;;;;;14.87;6.00;;;;;;;-2.55;86.53;102004.66;6024336;28;20026;-69
2022/03/08 04:05:22;;;;;;;15.73;4.33;;;;;;;-2.57;86.83;102003.84;6021351;28;20176;-68
2022/03/08 04:08:20;;;;;;;12.20;4.50;;;;;;;-2.67;86.14;102002.31;6021842;28;20073;-69
2022/03/08 04:11:15;;;;;;;8.95;3.60;;;;;;;-2.58;86.05;102002.13;6020927;28;20109;-67
2022/03/08 04:14:10;;;;;;;13.77;5.13;;;;;;;-2.63;85.43;102003.09;6021807;28;20030;-68
2022/03/08 04:17:06;;;;;;;9.70;4.07;;;;;;;-2.74;85.25;102012.81;6024577;28;20277;-68
2022/03/08 04:20:04;;;;;;;12.07;4.70;;;;;;;-2.60;85.26;102016.88;6021435;28;20100;-68
2022/03/08 04:22:59;;;;;;;12.25;4.32;;;;;;;-2.77;84.82;102013.75;6021346;28;20058;-68
2022/03/08 04:25:54;;;;;;;10.43;4.70;;;;;;;-2.80;85.33;102013.81;6021422;28;20049;-67
2022/03/08 04:28:50;;;;;;;17.60;6.50;;;;;;;-2.81;86.14;102024.22;6024301;28;20030;-68
2022/03/08 04:31:45;;;;;;;24.80;8.53;;;;;;;-2.80;86.73;102019.00;6021191;28;20084;-67
2022/03/08 04:34:40;;;;;;;18.17;6.63;;;;;;;-2.81;87.49;102025.09;6024358;28;20101;-68
2022/03/08 04:37:36;;;;;;;16.65;6.20;;;;;;;-2.81;87.31;102017.31;6018996;28;20035;-68
2022/03/08 04:40:31;;;;;;;21.67;7.30;;;;;;;-3.07;88.01;102020.38;6016497;28;20037;-67
2022/03/08 04:43:27;;;;;;;19.50;7.00;;;;;;;-3.00;88.20;102021.13;6023053;28;20340;-67
2022/03/08 04:46:22;;;;;;;17.20;6.70;;;;;;;-2.97;87.77;102015.03;6018446;28;20069;-67
2022/03/08 04:49:18;;;;;;;15.63;7.13;;;;;;;-2.94;88.25;102020.16;6020995;28;20026;-67
2022/03/08 04:52:13;;;;;;;26.40;7.47;;;;;;;-2.99;88.21;102022.84;6021292;28;20125;-67
2022/03/08 04:55:08;;;;;;;26.00;7.37;;;;;;;-3.00;88.72;102023.72;6025100;28;20100;-67
2022/03/08 04:58:04;;;;;;;30.42;8.23;;;;;;;-2.95;88.50;102024.50;6025601;28;20369;-67
2022/03/08 05:00:59;;;;;;;18.27;6.70;;;;;;;-2.92;88.48;102024.44;6024361;28;20049;-67
2022/03/08 05:03:54;;;;;;;16.17;7.27;;;;;;;-3.00;88.54;102026.31;6021227;28;20023;-67
2022/03/08 05:06:50;;;;;;;21.03;7.10;;;;;;;-2.94;88.54;102021.03;6024932;28;20438;-68
2022/03/08 05:09:45;;;;;;;19.65;7.47;;;;;;;-2.93;88.17;102021.84;6025825;28;20034;-67
2022/03/08 05:12:41;;;;;;;22.17;7.10;;;;;;;-2.88;88.11;102014.84;6025098;28;20057;-67
2022/03/08 05:15:36;;;;;;;19.15;7.28;;;;;;;-2.92;88.29;102033.94;6025453;28;20018;-68
2022/03/08 05:18:31;;;;;;;18.43;7.00;;;;;;;-2.89;88.55;102018.31;6027118;28;20038;-68
2022/03/08 05:21:27;;;;;;;17.13;6.90;;;;;;;-2.97;88.27;102020.22;6028882;28;20108;-68
2022/03/08 05:24:22;;;;;;;15.90;6.47;;;;;;;-2.94;88.23;102021.03;6029770;28;20030;-68
2022/03/08 05:27:17;;;;;;;17.63;6.20;;;;;;;-2.93;87.98;102027.03;6030043;28;20265;-68
2022/03/08 05:30:13;;;;;;;16.85;5.43;;;;;;;-3.00;88.33;102026.31;6029084;28;20050;-67
2022/03/08 05:33:08;;;;;;;16.17;6.90;;;;;;;-2.87;88.75;102016.56;6029669;28;20045;-68
2022/03/08 05:36:03;;;;;;;14.83;6.23;;;;;;;-2.81;88.21;102022.50;6028409;28;20330;-67
2022/03/08 05:38:59;;;;;;;17.73;5.33;;;;;;;-2.89;88.03;102031.31;6021277;28;20023;-67
2022/03/08 05:41:54;;;;;;;16.57;6.17;;;;;;;-2.96;88.40;102029.72;6025383;28;20265;-67
2022/03/08 05:44:49;;;;;;;18.63;6.83;;;;;;;-2.91;88.08;102027.88;6029340;28;20042;-67
2022/03/08 05:47:45;;;;;;;15.50;6.07;;;;;;;-2.87;87.51;102027.78;6029664;28;20111;-67
2022/03/08 05:50:40;;;;;;;11.03;4.80;;;;;;;-2.86;88.15;102029.50;6028094;28;20025;-68
2022/03/08 05:53:35;;;;;;;17.58;5.68;;;;;;;-2.86;87.83;102034.69;6028798;28;20091;-67
2022/03/08 05:56:31;;;;;;;18.15;4.93;;;;;;;-2.92;87.95;102034.81;6029188;28;20066;-68
2022/03/08 05:59:26;;;;;;;15.17;6.20;;;;;;;-2.93;88.32;102027.03;6029028;28;20454;-69
2022/03/08 06:02:21;;;;;;;18.50;6.30;;;;;;;-2.94;88.41;102035.72;6033433;28;20038;-67
2022/03/08 06:05:17;;;;;;;13.37;5.20;;;;;;;-2.94;87.58;102035.72;6034640;28;20038;-70
2022/03/08 06:08:12;;;;;;;12.75;5.47;;;;;;;-2.98;88.04;102034.91;6029245;28;20053;-69
2022/03/08 06:11:07;;;;;;;20.35;5.60;;;;;;;-2.90;88.00;102038.22;6029229;28;20488;-69
2022/03/08 06:14:03;;;;;;;18.70;5.43;;;;;;;-2.87;88.27;102048.53;6034792;28;20030;-70
2022/03/08 06:16:58;;;;;;;16.13;6.90;;;;;;;-2.91;87.87;102026.16;6028674;28;20038;-70
2022/03/08 06:19:53;;;;;;;11.10;5.03;;;;;;;-2.89;88.37;102034.75;6027858;28;20034;-69
2022/03/08 06:22:49;;;;;;;16.20;6.13;;;;;;;-2.83;88.05;102034.66;6028176;28;20034;-70
2022/03/08 06:25:44;;;;;;;14.40;5.87;;;;;;;-2.80;88.03;102039.75;6028703;28;20270;-68
2022/03/08 06:28:40;;;;;;;14.87;6.47;;;;;;;-2.77;87.95;102038.88;6027940;28;20378;-69
2022/03/08 06:31:36;;;;;;;13.98;5.38;;;;;;;-2.65;87.62;102039.47;6026411;28;20034;-67
2022/03/08 06:34:31;;;;;;;14.30;5.15;;;;;;;-2.48;87.58;102037.41;6027958;28;20029;-67
2022/03/08 06:37:26;;;;;;;13.63;5.77;;;;;;;-2.55;87.37;102034.94;6019999;28;20034;-67
2022/03/08 06:40:22;;;;;;;16.17;5.57;;;;;;;-2.32;87.35;102029.28;6013207;28;20753;-69
2022/03/08 06:43:17;;;;;;;12.85;5.25;;;;;;;-2.18;87.39;102029.84;6026735;28;20015;-70
2022/03/08 06:46:12;;;;;;;10.97;4.53;;;;;;;-1.85;87.13;102021.31;6027897;28;20037;-68
2022/03/08 06:49:08;;;;;;;16.20;6.83;;;;;;;-1.68;85.65;102026.09;6026809;28;20393;-70
2022/03/08 06:52:04;;;;;;;14.10;5.85;;;;;;;-1.28;85.46;102017.28;6026939;28;20030;-70
2022/03/08 06:55:00;;;;;;;14.18;5.28;;;;;;;-0.82;83.02;102010.88;6028029;28;20153;-70
2022/03/08 06:57:55;;;;;;;10.30;5.43;;;;;;;-0.48;81.82;102014.22;6027247;28;20484;-70
2022/03/08 07:00:50;;;;;;;15.98;5.82;;;;;;;-0.39;81.36;102016.56;6013895;28;20035;-70
2022/03/08 07:03:46;;;;;;;15.87;6.93;;;;;;;-0.48;80.36;102018.56;6027026;28;20048;-70
2022/03/08 07:06:41;;;;;;;16.77;6.47;;;;;;;-0.27;80.09;102018.81;6028040;28;20462;-68
2022/03/08 07:09:36;;;;;;;18.03;6.10;;;;;;;-0.31;80.46;102018.94;6026451;28;20058;-67
2022/03/08 07:12:32;;;;;;;13.03;5.30;;;;;;;-0.01;79.50;102018.88;6025739;28;20100;-67
2022/03/08 07:15:27;;;;;;;13.30;5.43;;;;;;;0.23;78.89;102017.28;6027417;28;20635;-68
2022/03/08 07:18:23;;;;;;;11.23;4.73;;;;;;;0.50;77.49;102020.75;6026900;28;20022;-68
2022/03/08 07:21:19;;;;;;;16.50;5.85;;;;;;;0.46;76.95;102009.53;6014782;28;20417;-68
2022/03/08 07:24:15;;;;;;;15.47;5.87;;;;;;;0.49;76.65;102013.84;6027188;28;20087;-69
2022/03/08 07:27:10;;;;;;;10.63;4.80;;;;;;;0.44;75.36;102013.97;6026661;28;20080;-69
2022/03/08 07:30:07;;;;;;;11.77;4.30;;;;;;;0.59;75.30;102015.22;6026567;28;20038;-70
2022/03/08 07:33:02;;;;;;;12.50;4.95;;;;;;;0.66;75.18;102021.94;6025938;28;20030;-72
2022/03/08 07:35:58;;;;;;;12.53;5.10;;;;;;;0.86;74.26;102016.06;6026880;28;20073;-69
2022/03/08 07:38:53;;;;;;;11.00;4.55;;;;;;;0.92;73.00;102014.09;6026800;28;20023;-69
2022/03/08 07:41:49;;;;;;;9.82;4.80;;;;;;;1.02;72.89;102019.84;6025298;28;20112;-68
2022/03/08 07:44:44;;;;;;;10.63;5.10;;;;;;;1.16;72.89;102013.25;6026975;28;20449;-71
2022/03/08 07:47:39;;;;;;;8.70;4.20;;;;;;;1.35;72.29;102018.66;6026077;28;20289;-71
2022/03/08 07:50:35;;;;;;;12.20;4.50;;;;;;;1.16;72.30;102022.84;6026448;28;20037;-71
2022/03/08 07:53:31;;;;;;;11.05;4.53;;;;;;;1.38;72.48;102033.38;6024049;28;20033;-71
2022/03/08 07:56:26;;;;;;;8.93;4.38;;;;;;;1.62;71.88;102032.47;6023068;28;20022;-70
2022/03/08 07:59:22;;;;;;;13.27;5.50;;;;;;;1.73;72.19;102035.53;6026694;28;20096;-70
2022/03/08 08:02:17;;;;;;;9.68;3.95;;;;;;;1.83;71.66;102038.66;6025489;28;20034;-71
2022/03/08 08:05:12;;;;;;;12.00;5.43;;;;;;;2.07;71.27;102043.78;6026572;28;20038;-71
2022/03/08 08:08:08;;;;;;;10.65;4.28;;;;;;;2.20;69.72;102037.16;6026282;28;20061;-72
2022/03/08 08:11:03;;;;;;;10.73;4.80;;;;;;;2.35;69.65;102031.34;6025853;28;20034;-72
2022/03/08 08:13:58;;;;;;;11.23;5.00;;;;;;;2.60;69.47;102036.44;6026272;28;20030;-72
2022/03/08 08:16:53;;;;;;;11.87;4.80;;;;;;;2.59;69.36;102033.88;6025676;28;20030;-71
2022/03/08 08:19:49;;;;;;;10.10;4.57;;;;;;;2.97;68.11;102026.13;6026425;28;20030;-71
2022/03/08 08:22:44;;;;;;;9.70;4.43;;;;;;;2.99;67.03;102018.19;6025363;28;20033;-72
2022/03/08 08:25:39;;;;;;;10.40;3.63;;;;;;;3.35;66.03;102021.84;6026247;28;20093;-74
2022/03/08 08:28:35;;;;;;;8.40;3.63;;;;;;;3.49;66.41;102029.09;6026014;28;20023;-71
2022/03/08 08:31:32;;;;;;;7.93;4.20;;;;;;;3.79;65.33;102017.22;6025110;28;20037;-73
2022/03/08 08:34:27;;;;;;;8.82;3.67;;;;;;;3.81;64.49;102019.75;6026222;28;20026;-72
2022/03/08 08:37:22;;;;;;;8.77;3.53;;;;;;;3.87;64.75;102014.22;6026019;28;20037;-71
2022/03/08 08:40:18;;;;;;;8.40;4.13;;;;;;;3.97;64.69;102010.25;6025268;28;20038;-73
2022/03/08 08:43:13;;;;;;;8.53;4.00;;;;;;;3.90;64.57;102003.59;6022396;28;20269;-73
2022/03/08 08:46:08;;;;;;;8.57;3.83;;;;;;;4.06;63.53;102010.66;6024987;28;20387;-72
2022/03/08 08:49:05;;;;;;;6.80;3.40;;;;;;;4.36;63.16;102010.97;6020277;28;20461;-72
2022/03/08 08:52:00;;;;;;;7.30;3.45;;;;;;;4.13;62.34;102003.38;6020289;28;20413;-72
2022/03/08 08:54:55;;;;;;;8.73;2.87;;;;;;;4.27;62.69;102006.16;6027648;28;20043;-72
2022/03/08 08:57:50;;;;;;;9.47;3.17;;;;;;;4.47;61.95;102008.69;6027618;28;20023;-73
2022/03/08 09:00:46;;;;;;;8.77;3.67;;;;;;;4.49;62.16;102005.97;6026502;28;20289;-72
2022/03/08 09:03:41;;;;;;;8.10;3.50;;;;;;;4.86;63.48;102008.47;6023864;28;20031;-72
2022/03/08 09:06:37;;;;;;;10.10;3.60;;;;;;;5.09;61.32;102009.91;6028717;28;20026;-72
2022/03/08 09:09:32;;;;;;;5.20;2.97;;;;;;;5.22;60.69;102003.09;6027939;28;20080;-71
2022/03/08 09:12:28;;;;;;;9.02;2.95;;;;;;;5.39;60.22;101997.78;6027759;28;20049;-70
2022/03/08 09:15:23;;;;;;;10.57;3.70;;;;;;;5.55;59.19;101998.66;6028265;28;20022;-71
2022/03/08 09:18:19;;;;;;;9.30;3.27;;;;;;;5.48;59.48;101997.31;6022114;28;20057;-72
2022/03/08 09:21:14;;;;;;;7.93;2.40;;;;;;;5.56;58.79;101995.13;6028331;28;20033;-72
2022/03/08 09:24:10;;;;;;;5.77;1.80;;;;;;;5.87;57.55;101997.81;6025128;28;20121;-72
2022/03/08 09:27:05;;;;;;;4.03;2.00;;;;;;;5.83;56.42;101993.63;6023752;28;20280;-71
2022/03/08 09:30:03;;;;;;;4.47;1.75;;;;;;;6.03;56.27;102002.25;6019974;28;20053;-72
2022/03/08 09:33:00;;;;;;;4.20;1.95;;;;;;;6.21;56.07;101988.03;6024926;28;20030;-71
2022/03/08 09:35:55;;;;;;;3.42;1.42;;;;;;;6.04;55.38;101990.75;6026840;28;20022;-70
2022/03/08 09:38:51;;;;;;;5.23;2.00;;;;;;;5.91;55.36;101998.50;6028942;28;20058;-71
2022/03/08 09:41:51;;;;;;;5.97;2.40;;;;;;;6.25;55.60;101985.13;6027294;28;20037;-70
2022/03/08 09:44:48;;;;;;;5.28;1.45;;;;;;;6.43;54.72;101993.78;6028640;28;20053;-70
2022/03/08 09:47:44;;;;;;;3.85;1.48;;;;;;;6.54;53.49;101992.22;6027496;28;20516;-70
2022/03/08 09:50:39;;;;;;;5.03;1.85;;;;;;;6.78;52.74;101984.66;6027238;28;20042;-71
2022/03/08 09:53:35;;;;;;;4.83;1.70;;;;;;;6.52;53.37;101983.53;6027488;28;20041;-72
2022/03/08 09:56:30;;;;;;;5.57;1.70;;;;;;;6.80;52.19;101977.50;6026622;28;20373;-70
2022/03/08 09:59:29;;;;;;;4.03;1.63;;;;;;;6.88;51.47;101975.28;6027673;28;20092;-71
2022/03/08 10:02:25;;;;;;;3.58;1.60;;;;;;;6.74;51.96;101983.13;6025970;28;20088;-72
2022/03/08 10:05:22;;;;;;;5.80;1.83;;;;;;;6.92;51.36;101978.56;6027103;28;20030;-71
2022/03/08 10:08:21;;;;;;;2.75;1.20;;;;;;;7.20;50.92;101981.25;6028020;28;20620;-70
2022/03/08 10:11:17;;;;;;;5.03;1.40;;;;;;;7.25;49.92;101983.63;6026941;28;20088;-69
2022/03/08 10:14:14;;;;;;;4.10;1.60;;;;;;;7.51;50.28;101980.22;6028098;28;20038;-69
2022/03/08 10:17:33;;;;;;;5.18;1.90;;;;;;;7.56;50.07;101983.41;6028435;28;20325;-69
2022/03/08 10:20:31;;;;;;;2.95;1.45;;;;;;;8.12;49.17;101983.31;6027520;28;20076;-71
2022/03/08 10:23:26;;;;;;;2.58;1.30;;;;;;;8.23;47.72;101977.34;6028036;28;20038;-69
2022/03/08 10:26:22;;;;;;;3.23;1.20;;;;;;;7.76;45.99;101964.53;6028014;28;20647;-69
2022/03/08 10:29:38;;;;;;;1.98;1.13;;;;;;;7.78;46.12;101968.78;6028137;28;20478;-72
2022/03/08 10:32:37;;;;;;;2.88;1.10;;;;;;;7.92;46.10;101957.31;6021598;28;20096;-70
2022/03/08 10:35:37;;;;;;;3.67;1.20;;;;;;;7.82;45.08;101958.00;6025525;28;20038;-72
2022/03/08 10:38:32;;;;;;;2.20;0.90;;;;;;;7.90;43.27;101961.88;6027351;28;20236;-71
2022/03/08 10:41:27;;;;;;;3.53;0.90;;;;;;;8.03;43.40;101956.63;6027227;28;20061;-70
2022/03/08 10:44:32;;;;;;;1.70;0.60;;;;;;;8.06;44.00;101956.44;6027455;28;20526;-69
2022/03/08 10:47:37;;;;;;;2.97;0.95;;;;;;;8.22;43.78;101957.13;6028084;28;20434;-72
2022/03/08 10:50:35;;;;;;;11.63;3.55;;;;;;;8.14;40.70;101949.72;6025862;28;20486;-71
2022/03/08 10:53:30;;;;;;;6.82;2.25;;;;;;;8.11;40.70;101949.91;6027328;28;20038;-71
2022/03/08 10:56:25;;;;;;;11.83;3.50;;;;;;;8.13;41.72;101937.44;6023811;28;20084;-70
2022/03/08 10:59:20;;;;;;;37.70;15.00;;;;;;;8.18;41.40;101945.91;6027916;28;20366;-71
2022/03/08 11:02:21;;;;;;;39.00;14.13;;;;;;;8.51;41.76;101944.66;6026287;28;20382;-68
2022/03/08 11:05:18;;;;;;;16.17;8.18;;;;;;;8.33;41.28;101942.31;6027367;28;20022;-69
2022/03/08 11:08:14;;;;;;;7.72;2.15;;;;;;;8.27;41.88;101950.63;6027174;28;20034;-71
2022/03/08 11:11:10;;;;;;;6.63;4.22;;;;;;;8.32;41.96;101935.31;6026646;28;20444;-70
2022/03/08 11:14:05;;;;;;;2.33;1.10;;;;;;;8.57;43.42;101933.69;6026261;28;20041;-70
2022/03/08 11:17:00;;;;;;;5.37;1.90;;;;;;;8.46;42.16;101928.25;6026560;28;21467;-70
2022/03/08 11:19:56;;;;;;;3.38;1.50;;;;;;;8.91;41.19;101922.53;6026328;28;20031;-70
2022/03/08 11:22:54;;;;;;;2.08;0.80;;;;;;;8.77;40.54;101917.31;6024831;28;20089;-73
2022/03/08 11:25:50;;;;;;;3.00;1.38;;;;;;;9.15;41.13;101906.72;6025897;28;20030;-74
2022/03/08 11:28:46;;;;;;;1.27;0.65;;;;;;;8.88;39.85;101910.34;6026050;28;20060;-71
2022/03/08 11:31:43;;;;;;;3.65;2.25;;;;;;;9.10;39.51;101914.16;6033009;28;20121;-71
2022/03/08 11:34:43;;;;;;;2.45;0.63;;;;;;;8.80;39.71;101917.13;6034596;28;20031;-73
2022/03/08 11:37:40;;;;;;;2.47;1.23;;;;;;;8.63;39.46;101912.97;6025996;28;20030;-71
2022/03/08 11:40:36;;;;;;;2.08;0.90;;;;;;;8.89;38.57;101895.31;6014803;28;20056;-72
2022/03/08 11:43:45;;;;;;;5.23;1.80;;;;;;;8.83;38.97;101906.34;6025289;28;20046;-72
2022/03/08 11:46:57;;;;;;;2.65;1.05;;;;;;;8.94;39.12;101906.44;6026415;28;20034;-71
2022/03/08 11:49:54;;;;;;;1.50;0.90;;;;;;;9.17;38.96;101897.72;6026965;28;20022;-73
2022/03/08 11:52:52;;;;;;;6.82;3.00;;;;;;;9.09;38.95;101899.22;6026236;28;20041;-70
2022/03/08 11:55:50;;;;;;;3.25;1.20;;;;;;;8.82;39.58;101904.63;6026147;28;20057;-74
2022/03/08 11:58:47;;;;;;;6.30;2.40;;;;;;;8.88;39.72;101905.06;6025862;28;20034;-72
2022/03/08 12:01:42;;;;;;;4.55;2.10;;;;;;;8.89;39.66;101885.56;6024401;28;20030;-72
2022/03/08 12:04:44;;;;;;;2.15;0.93;;;;;;;9.20;39.32;101900.16;6023467;28;20433;-71
2022/03/08 12:07:40;;;;;;;1.63;0.90;;;;;;;9.48;39.23;101905.16;6025574;28;20038;-70
2022/03/08 12:10:42;;;;;;;2.07;0.83;;;;;;;9.25;38.79;101900.69;6023166;28;20088;-69
2022/03/08 12:13:42;;;;;;;2.97;0.85;;;;;;;9.36;39.16;101890.19;6026099;28;20026;-69
2022/03/08 12:16:39;;;;;;;2.22;0.90;;;;;;;9.70;39.28;101883.31;6024927;28;20104;-70
2022/03/08 12:19:43;;;;;;;2.00;0.73;;;;;;;9.40;38.30;101891.63;6025270;28;20026;-72
2022/03/08 12:22:40;;;;;;;4.40;0.90;;;;;;;8.98;38.21;101884.09;6023991;28;20573;-71
2022/03/08 12:25:35;;;;;;;3.78;0.93;;;;;;;9.24;39.06;101888.38;6025657;28;20034;-71
2022/03/08 12:29:01;;;;;;;5.30;1.13;;;;;;;9.28;39.52;101881.94;6025090;28;20042;-71
2022/03/08 12:31:57;;;;;;;3.03;1.20;;;;;;;9.51;38.50;101873.19;6030298;28;20450;-71
2022/03/08 12:34:55;;;;;;;2.40;0.80;;;;;;;9.33;37.61;101860.44;6025547;28;20044;-70
2022/03/08 12:37:58;;;;;;;2.80;0.90;;;;;;;9.52;37.22;101851.06;6024828;28;20117;-72
2022/03/08 12:40:54;;;;;;;2.53;1.00;;;;;;;9.42;37.45;101857.13;6024331;28;20033;-71
2022/03/08 12:44:00;;;;;;;2.57;0.80;;;;;;;9.36;37.71;101853.13;6025183;28;20486;-72
2022/03/08 12:46:55;;;;;;;2.95;1.10;;;;;;;9.43;38.24;101856.19;6024869;28;20425;-69
2022/03/08 12:49:51;;;;;;;5.03;1.87;;;;;;;9.69;37.15;101852.47;6040255;28;20038;-70
2022/03/08 12:52:55;;;;;;;2.75;1.10;;;;;;;9.71;37.39;101852.34;6024463;28;20299;-69
2022/03/08 12:55:56;;;;;;;2.33;1.10;;;;;;;9.49;37.75;101848.63;6024021;28;20038;-72
2022/03/08 12:59:03;;;;;;;3.42;0.95;;;;;;;9.52;37.10;101842.25;6025084;28;20031;-70
2022/03/08 13:02:08;;;;;;;4.38;1.05;;;;;;;9.21;37.46;101841.00;6023221;28;20046;-70
2022/03/08 13:05:05;;;;;;;1.92;1.23;;;;;;;9.40;38.17;101846.63;6025031;28;20061;-69
2022/03/08 13:08:00;;;;;;;2.05;1.00;;;;;;;9.32;38.07;101841.03;6025404;28;20034;-71
2022/03/08 13:10:58;;;;;;;1.88;0.93;;;;;;;9.56;37.93;101828.72;6023277;28;20091;-72
2022/03/08 13:13:53;;;;;;;1.90;0.90;;;;;;;9.41;36.99;101832.44;6024844;28;20109;-70
2022/03/08 13:16:48;;;;;;;1.67;0.82;;;;;;;9.39;36.78;101826.44;6025183;28;20085;-73
2022/03/08 13:19:44;;;;;;;1.40;0.70;;;;;;;9.51;36.70;101830.81;6024318;28;20038;-73
2022/03/08 13:22:45;;;;;;;1.52;0.90;;;;;;;9.69;34.05;101811.91;6023795;28;20057;-71
2022/03/08 13:25:43;;;;;;;2.50;0.60;;;;;;;9.31;33.02;101828.78;6031520;28;20089;-73
2022/03/08 13:28:39;;;;;;;1.80;0.73;;;;;;;9.21;34.60;101822.47;6025034;28;20037;-70
2022/03/08 13:31:44;;;;;;;2.30;0.80;;;;;;;9.07;34.72;101830.53;6023440;28;20050;-72
2022/03/08 13:34:39;;;;;;;1.58;1.00;;;;;;;9.42;34.31;101830.66;6025237;28;20045;-71
2022/03/08 13:37:49;;;;;;;3.80;1.07;;;;;;;9.39;35.26;101822.94;6024748;28;20038;-71
2022/03/08 13:40:45;;;;;;;3.83;0.93;;;;;;;9.12;35.98;101833.72;6027676;28;20081;-72